Hlavní strana
METAR-TAF:

METAR-TAF

Letiště :

Letiště Longyearbyen

Longyearbyen, Norsko

zeměpisná šířka: 78-15N, zeměpisná délka: 015-28E, výška: 2 m

Aktuální stav počasí

Zpráva byla vytvořena před 37 minutami, v 18:50 UTC
Východojihovýchodní vítr 5 kt, proměnlivý mezi východoseverovýchodním a jihovýchodním
Teplota -9°C
Vlhkost vzduchu 67%
Tlak 1008 hPa
Viditelnost 10 km a více
Skoro jasno ve výšce 1500 ft
Polojasno ve výšce 4000 ft
Oblačno až skoro zataženo ve výšce 6000 ft

METAR: ENSB 221850Z 11005KT 060V140 9999 FEW015 SCT040 BKN060 M09/M14 Q1008 RMK WIND 1400FT 05012KT

Čas: 21:27 (19:27 UTC)

Předpověď počasí

Předpověď platná od 22 v 18 UTC do 23 v 18 UTC
Východojihovýchodní vítr 8 kt
Viditelnost 10 km a více
Skoro jasno ve výšce 1500 ft
Dočasný
od 23 v 09 UTC do 23 v 18 UTC
Severoseverovýchodní vítr 12 kt

TAF: ENSB 2218/2318 12008KT 9999 FEW015 TEMPO 2309/2318 03012KT

Stav a předpovědi počasí z více než 4 000 letišť (zprávy METAR a TAF).

Červené a žluté tečky na mapě představují dostupné meteorologické stanice.

Když kurzor umístíte na tečku, zobrazí se název stanice.

Pak kliknutím zobrazíte stav a předpověď počasí.

Chcete-li změnit mapu, kliknutím na zelené tlačítko se znaménkem +mapu přiblížíte, kliknutím na zelené tlačítko se znaménkem – mapu oddálíte a kliknutím na zelené šipky přejdete na sousední mapy.


METAR-TAF: